Time;durP1;ratioP1;P1;durP2;ratioP2;P2;SDS_P1;SDS_P2;PMS_P1;PMS_P2;Temp;Humidity;BMP_temperature;BMP_pressure;BME280_temperature;BME280_humidity;BME280_pressure;Samples;Min_cycle;Max_cycle;Signal;HPM_P1;HPM_P2
2023/05/01 00:00:59;;;;;;;4.05;1.55;;;;;;;19.45;44.11;101673.50;5022279;28;20040;-69
2023/05/01 00:03:25;;;;;;;3.97;2.03;;;;;;;19.44;44.05;101667.38;5021770;28;20132;-70
2023/05/01 00:05:50;;;;;;;3.72;1.60;;;;;;;19.45;44.22;101666.41;5021819;28;20116;-70
2023/05/01 00:08:16;;;;;;;3.55;1.60;;;;;;;19.44;44.19;101655.94;5021911;28;20116;-69
2023/05/01 00:10:41;;;;;;;2.90;1.52;;;;;;;19.45;44.22;101658.47;5022201;28;20128;-69
2023/05/01 00:13:08;;;;;;;3.15;1.48;;;;;;;19.42;43.93;101647.28;5020605;28;20033;-69
2023/05/01 00:15:33;;;;;;;4.65;1.80;;;;;;;19.41;43.89;101649.09;5021671;28;20034;-69
2023/05/01 00:17:59;;;;;;;3.97;1.70;;;;;;;19.41;44.09;101651.75;5021794;28;20041;-71
2023/05/01 00:20:28;;;;;;;3.58;1.58;;;;;;;19.43;44.00;101649.00;5021331;28;20541;-69
2023/05/01 00:22:54;;;;;;;3.53;1.50;;;;;;;19.41;44.14;101638.53;5020941;28;20041;-69
2023/05/01 00:25:19;;;;;;;4.43;1.70;;;;;;;19.41;43.94;101635.88;5021923;28;20084;-70
2023/05/01 00:27:44;;;;;;;2.97;1.60;;;;;;;19.41;43.88;101638.53;5019882;28;20219;-69
2023/05/01 00:30:10;;;;;;;5.20;1.77;;;;;;;19.39;43.82;101636.00;5021815;28;20025;-70
2023/05/01 00:32:35;;;;;;;4.80;1.55;;;;;;;19.40;43.76;101634.19;5020948;28;20088;-69
2023/05/01 00:35:01;;;;;;;3.07;1.63;;;;;;;19.38;43.95;101628.19;5021455;28;20493;-70
2023/05/01 00:37:26;;;;;;;3.90;1.65;;;;;;;19.37;43.87;101624.66;5021141;28;20392;-70
2023/05/01 00:39:51;;;;;;;2.55;1.30;;;;;;;19.39;43.74;101622.78;5021390;28;20385;-70
2023/05/01 00:42:17;;;;;;;2.72;1.40;;;;;;;19.37;43.71;101629.13;5021071;28;20037;-70
2023/05/01 00:44:42;;;;;;;3.88;1.60;;;;;;;19.36;43.71;101625.66;5021502;28;20065;-70
2023/05/01 00:47:07;;;;;;;3.97;1.45;;;;;;;19.35;43.77;101623.13;5021346;28;20033;-70
2023/05/01 00:49:33;;;;;;;3.85;1.58;;;;;;;19.36;43.79;101624.81;5020926;28;20458;-70
2023/05/01 00:51:58;;;;;;;3.45;1.42;;;;;;;19.36;43.72;101617.72;5020948;28;20037;-68
2023/05/01 00:54:27;;;;;;;3.42;1.63;;;;;;;19.36;43.73;101614.25;5021494;28;20029;-69
2023/05/01 00:56:52;;;;;;;3.42;1.65;;;;;;;19.33;43.67;101606.53;5020747;28;20095;-69
2023/05/01 00:59:17;;;;;;;3.03;1.50;;;;;;;19.33;43.71;101607.38;5021017;28;20041;-69
2023/05/01 01:01:43;;;;;;;3.85;1.55;;;;;;;19.33;43.78;101595.97;5021083;28;20037;-69
2023/05/01 01:04:09;;;;;;;3.92;1.67;;;;;;;19.33;43.80;101596.81;5020925;28;20033;-69
2023/05/01 01:06:44;;;;;;;3.60;1.50;;;;;;;19.32;43.56;101594.28;5020966;28;20037;-68
2023/05/01 01:09:36;;;;;;;3.97;1.70;;;;;;;19.33;43.81;101588.88;5021178;28;20048;-69
2023/05/01 01:12:14;;;;;;;5.22;1.50;;;;;;;19.31;43.72;101577.59;5020954;28;20401;-69
2023/05/01 01:14:49;;;;;;;4.53;1.60;;;;;;;19.32;43.70;101575.78;5020228;28;20151;-68
2023/05/01 01:17:28;;;;;;;4.05;1.65;;;;;;;19.30;43.75;101569.78;5020793;28;20509;-69
2023/05/01 01:20:18;;;;;;;4.13;2.15;;;;;;;19.28;43.81;101561.94;5020703;28;20029;-68
2023/05/01 01:22:50;;;;;;;3.72;1.55;;;;;;;19.31;43.75;101568.78;5020675;28;20041;-69
2023/05/01 01:25:44;;;;;;;4.45;1.83;;;;;;;19.27;43.69;101564.72;5021036;28;20044;-69
2023/05/01 01:28:31;;;;;;;3.95;1.70;;;;;;;19.31;43.59;101563.50;5020929;28;20144;-69
2023/05/01 01:31:09;;;;;;;5.30;1.58;;;;;;;19.27;43.62;101559.44;5019656;28;20509;-69
2023/05/01 01:33:42;;;;;;;3.55;1.60;;;;;;;19.27;43.62;101548.84;5020738;28;20102;-69
2023/05/01 01:36:14;;;;;;;3.40;1.67;;;;;;;19.26;43.75;101545.34;5021200;28;20397;-68
2023/05/01 01:38:44;;;;;;;3.80;1.42;;;;;;;19.28;43.55;101542.59;5020773;28;20033;-69
2023/05/01 01:41:18;;;;;;;4.00;1.50;;;;;;;19.28;43.59;101539.94;5020522;28;20029;-70
2023/05/01 01:43:46;;;;;;;;;;;;;;;19.31;43.60;101542.38;5023067;28;20486;-69
2023/05/01 01:46:11;;;;;;;5.40;1.80;;;;;;;19.29;43.27;101539.00;5024156;28;19909;-69
2023/05/01 01:48:42;;;;;;;3.25;1.50;;;;;;;19.26;43.43;101531.31;5024608;28;20070;-69
2023/05/01 01:51:11;;;;;;;3.35;1.35;;;;;;;19.28;43.45;101521.44;5024895;28;20112;-69
2023/05/01 01:53:39;;;;;;;3.60;1.77;;;;;;;19.24;43.35;101523.50;5024238;28;20036;-69
2023/05/01 01:56:06;;;;;;;3.80;1.92;;;;;;;19.24;43.29;101526.13;5024604;28;20042;-70
2023/05/01 01:58:35;;;;;;;4.38;1.50;;;;;;;19.24;43.23;101526.13;5024076;28;20034;-69
2023/05/01 02:01:00;;;;;;;3.38;1.50;;;;;;;19.25;43.36;101527.81;5024268;28;20036;-68
2023/05/01 02:03:26;;;;;;;4.38;1.60;;;;;;;19.23;43.15;101518.31;5024682;28;20033;-68
2023/05/01 02:05:53;;;;;;;4.43;1.60;;;;;;;19.23;43.24;101519.16;5023967;28;20040;-68
2023/05/01 02:08:20;;;;;;;3.70;1.60;;;;;;;19.21;43.32;101513.97;5023908;28;20903;-70
2023/05/01 02:10:47;;;;;;;4.68;1.52;;;;;;;19.23;43.14;101513.88;5024244;28;20405;-68
2023/05/01 02:13:14;;;;;;;3.20;1.45;;;;;;;19.21;43.25;101503.41;5022468;28;20065;-68
2023/05/01 02:15:40;;;;;;;3.30;1.48;;;;;;;19.20;43.29;101507.03;5023540;28;20029;-68
2023/05/01 02:18:06;;;;;;;3.88;1.80;;;;;;;19.20;43.26;101507.03;5024277;28;20063;-70
2023/05/01 02:20:32;;;;;;;4.13;1.55;;;;;;;19.20;43.46;101503.53;5023892;28;20278;-69
2023/05/01 02:22:58;;;;;;;4.53;1.55;;;;;;;19.20;43.31;101506.16;5023724;28;20054;-68
2023/05/01 02:25:25;;;;;;;3.95;1.60;;;;;;;19.21;43.38;101506.06;5023901;28;20500;-68
2023/05/01 02:28:00;;;;;;;3.47;1.60;;;;;;;19.14;43.34;101488.16;5023319;28;20500;-69
2023/05/01 02:30:25;;;;;;;5.05;1.80;;;;;;;19.21;43.11;101497.28;5022577;28;20037;-68
2023/05/01 02:32:51;;;;;;;3.28;1.50;;;;;;;19.17;43.32;101490.56;5023113;28;20536;-70
2023/05/01 02:35:16;;;;;;;4.05;1.65;;;;;;;19.18;43.05;101493.09;5023806;28;20109;-69
2023/05/01 02:37:43;;;;;;;3.00;1.55;;;;;;;19.16;43.15;101480.94;5023721;28;20135;-70
2023/05/01 02:40:11;;;;;;;4.07;1.40;;;;;;;19.19;43.27;101486.00;5023701;28;20033;-70
2023/05/01 02:42:37;;;;;;;3.38;1.50;;;;;;;19.18;43.23;101479.03;5023371;28;20355;-69
2023/05/01 02:45:05;;;;;;;2.78;1.40;;;;;;;19.18;43.25;101487.81;5023736;28;20166;-69
2023/05/01 02:47:34;;;;;;;3.22;1.48;;;;;;;19.17;43.17;101478.19;5023271;28;20437;-69
2023/05/01 02:50:00;;;;;;;4.80;1.70;;;;;;;19.18;43.25;101476.38;5022459;28;20038;-69
2023/05/01 02:52:26;;;;;;;3.75;1.50;;;;;;;19.16;43.28;101468.56;5023147;28;20030;-69
2023/05/01 02:54:51;;;;;;;5.15;1.88;;;;;;;19.15;43.21;101461.63;5022830;28;20378;-69
2023/05/01 02:57:19;;;;;;;5.82;1.77;;;;;;;19.16;42.96;101462.47;5023282;28;20413;-69
2023/05/01 02:59:44;;;;;;;5.63;1.58;;;;;;;19.15;43.01;101458.97;5023420;28;20462;-69
2023/05/01 03:02:10;;;;;;;3.25;1.58;;;;;;;19.17;43.21;101464.97;5023136;28;20087;-70
2023/05/01 03:04:35;;;;;;;3.00;1.33;;;;;;;19.15;43.16;101450.19;5023228;28;20391;-71
2023/05/01 03:07:00;;;;;;;3.83;1.70;;;;;;;19.16;43.09;101455.38;5022568;28;20120;-69
2023/05/01 03:09:26;;;;;;;4.63;1.83;;;;;;;19.15;43.19;101451.06;5023126;28;20033;-68
2023/05/01 03:11:51;;;;;;;4.35;1.67;;;;;;;19.14;43.05;101446.72;5021721;28;20286;-69
2023/05/01 03:14:16;;;;;;;3.90;1.60;;;;;;;19.15;43.09;101448.41;5022874;28;20037;-68
2023/05/01 03:16:43;;;;;;;3.95;1.60;;;;;;;19.15;43.50;101444.91;5021977;28;20359;-69
2023/05/01 03:19:09;;;;;;;4.57;1.67;;;;;;;19.13;43.16;101439.75;5023178;28;20037;-69
2023/05/01 03:21:35;;;;;;;4.05;1.70;;;;;;;19.15;43.11;101442.28;5022692;28;20433;-69
2023/05/01 03:24:01;;;;;;;4.40;1.83;;;;;;;19.14;43.13;101438.78;5022960;28;20100;-70
2023/05/01 03:26:27;;;;;;;4.03;1.88;;;;;;;19.13;43.01;101428.34;5022678;28;20478;-69
2023/05/01 03:28:52;;;;;;;5.05;1.55;;;;;;;19.13;43.16;101426.53;5021176;28;20104;-69
2023/05/01 03:31:17;;;;;;;3.50;1.87;;;;;;;19.15;42.91;101431.69;5022328;28;20037;-69
2023/05/01 03:33:43;;;;;;;5.25;2.58;;;;;;;19.13;43.16;101429.19;5022988;28;20314;-69
2023/05/01 03:36:11;;;;;;;4.15;1.58;;;;;;;19.12;43.01;101427.50;5022656;28;20041;-68
2023/05/01 03:38:36;;;;;;;4.80;1.88;;;;;;;19.13;42.90;101423.88;5022501;28;20997;-69
2023/05/01 03:41:04;;;;;;;3.78;1.60;;;;;;;19.10;42.96;101424.13;5022592;28;20089;-69
2023/05/01 03:43:30;;;;;;;3.75;1.63;;;;;;;19.10;43.03;101418.00;5022147;28;20033;-70
2023/05/01 03:45:56;;;;;;;4.15;1.70;;;;;;;19.12;42.88;101418.72;5022404;28;20072;-68
2023/05/01 03:48:22;;;;;;;4.78;1.67;;;;;;;19.11;43.05;101415.25;5022397;28;20129;-69
2023/05/01 03:50:47;;;;;;;3.95;1.70;;;;;;;19.11;43.03;101417.91;5022264;28;20036;-69
2023/05/01 03:53:12;;;;;;;4.40;1.90;;;;;;;19.11;43.13;101412.59;5022448;28;20115;-69
2023/05/01 03:55:39;;;;;;;3.60;1.80;;;;;;;19.10;43.01;101412.72;5022348;28;20124;-69
2023/05/01 03:58:05;;;;;;;3.97;1.55;;;;;;;19.05;43.14;101404.31;5021973;28;20440;-69
2023/05/01 04:00:31;;;;;;;3.88;1.70;;;;;;;19.09;42.89;101403.97;5022213;28;20107;-70
2023/05/01 04:02:56;;;;;;;4.10;1.83;;;;;;;19.09;42.68;101405.75;5022073;28;20037;-68
2023/05/01 04:05:21;;;;;;;2.95;1.60;;;;;;;19.08;42.92;101407.56;5021870;28;20036;-68
2023/05/01 04:07:47;;;;;;;3.53;1.50;;;;;;;19.09;42.94;101406.59;5021342;28;20041;-68
2023/05/01 04:10:12;;;;;;;3.15;1.60;;;;;;;19.09;42.93;101400.47;5022087;28;20026;-68
2023/05/01 04:12:37;;;;;;;4.05;1.75;;;;;;;19.08;42.83;101402.28;5021208;28;20037;-68
2023/05/01 04:15:03;;;;;;;4.72;1.80;;;;;;;19.09;42.81;101408.38;5021764;28;20045;-68
2023/05/01 04:17:29;;;;;;;3.47;1.50;;;;;;;19.08;42.95;101407.56;5021763;28;20481;-69
2023/05/01 04:19:54;;;;;;;3.95;1.70;;;;;;;19.07;42.79;101399.75;5021836;28;20441;-69
2023/05/01 04:22:21;;;;;;;4.38;1.70;;;;;;;19.06;42.89;101406.84;5021168;28;20025;-69
2023/05/01 04:24:46;;;;;;;4.28;1.88;;;;;;;19.07;43.00;101416.44;5021837;28;20029;-69
2023/05/01 04:27:12;;;;;;;3.67;1.60;;;;;;;19.08;42.99;101425.22;5021265;28;20389;-69
2023/05/01 04:29:37;;;;;;;4.60;1.88;;;;;;;19.06;43.04;101420.06;5021947;28;20048;-68
2023/05/01 04:32:02;;;;;;;4.07;1.83;;;;;;;19.05;42.98;101413.06;5021389;28;20117;-69
2023/05/01 04:34:28;;;;;;;3.28;1.60;;;;;;;19.05;43.10;101409.59;5021470;28;20037;-69
2023/05/01 04:36:56;;;;;;;3.65;1.80;;;;;;;19.06;43.04;101417.41;5021221;28;20203;-69
2023/05/01 04:39:21;;;;;;;5.22;1.67;;;;;;;19.03;42.99;101407.91;5021271;28;20502;-70
2023/05/01 04:41:46;;;;;;;3.17;1.60;;;;;;;19.05;43.01;101405.16;5021294;28;20037;-69
2023/05/01 04:44:12;;;;;;;3.38;1.80;;;;;;;19.06;43.03;101403.34;5021002;28;20080;-69
2023/05/01 04:46:37;;;;;;;4.28;1.80;;;;;;;19.01;43.02;101407.19;5021619;28;20029;-69
2023/05/01 04:49:02;;;;;;;3.25;1.50;;;;;;;19.05;43.06;101407.78;5021316;28;20444;-69
2023/05/01 04:51:28;;;;;;;5.05;2.08;;;;;;;19.05;42.96;101401.69;5021489;28;20037;-69
2023/05/01 04:53:54;;;;;;;4.88;1.80;;;;;;;19.04;42.88;101403.44;5020866;28;20072;-69
2023/05/01 04:56:20;;;;;;;4.03;1.75;;;;;;;19.03;42.93;101404.44;5021042;28;21432;-69
2023/05/01 04:58:45;;;;;;;3.78;1.75;;;;;;;19.03;43.08;101402.63;5021276;28;20152;-69
2023/05/01 05:01:10;;;;;;;5.00;1.85;;;;;;;19.02;43.03;101393.00;5019801;28;20497;-68
2023/05/01 05:03:36;;;;;;;4.50;1.70;;;;;;;19.03;42.93;101392.06;5021024;28;20033;-69
2023/05/01 05:06:02;;;;;;;4.10;1.90;;;;;;;19.02;42.91;101393.00;5021301;28;20037;-69
2023/05/01 05:08:27;;;;;;;4.72;1.90;;;;;;;19.02;42.95;101397.47;5020938;28;20040;-68
2023/05/01 05:10:59;;;;;;;3.45;1.80;;;;;;;19.00;42.87;101396.75;5020755;28;20041;-71
2023/05/01 05:13:25;;;;;;;3.50;1.60;;;;;;;19.00;42.82;101400.22;5020994;28;20789;-69
2023/05/01 05:15:50;;;;;;;3.33;1.70;;;;;;;19.03;42.82;101404.44;5021107;28;20116;-70
2023/05/01 05:18:16;;;;;;;3.38;1.70;;;;;;;19.00;42.84;101394.94;5022002;28;20041;-68
2023/05/01 05:20:41;;;;;;;4.40;1.90;;;;;;;18.99;43.11;101401.19;5025281;28;20485;-69
2023/05/01 05:23:06;;;;;;;4.72;2.20;;;;;;;18.98;42.76;101388.94;5024466;28;20332;-69
2023/05/01 05:25:32;;;;;;;4.45;1.80;;;;;;;19.00;42.70;101394.09;5024789;28;20034;-70
2023/05/01 05:27:59;;;;;;;3.70;1.70;;;;;;;18.99;42.46;101403.84;5024672;28;20036;-69
2023/05/01 05:30:25;;;;;;;4.18;1.80;;;;;;;18.98;43.02;101404.78;5025132;28;20071;-70
2023/05/01 05:32:50;;;;;;;3.80;1.75;;;;;;;18.97;42.82;101397.81;5025225;28;20065;-70
2023/05/01 05:35:15;;;;;;;4.20;1.80;;;;;;;18.96;42.74;101392.63;5024969;28;20457;-70
2023/05/01 05:37:40;;;;;;;3.53;1.90;;;;;;;18.98;43.05;101398.66;5023427;28;20041;-70
2023/05/01 05:40:06;;;;;;;4.33;1.73;;;;;;;18.98;43.33;101393.38;5024523;28;20029;-70
2023/05/01 05:42:32;;;;;;;4.43;1.90;;;;;;;18.96;43.10;101392.63;5022882;28;20623;-68
2023/05/01 05:44:58;;;;;;;3.35;1.60;;;;;;;18.98;43.10;101396.84;5024640;28;20040;-71
2023/05/01 05:47:23;;;;;;;3.00;1.40;;;;;;;18.96;43.34;101396.13;5024675;28;20504;-69
2023/05/01 05:49:48;;;;;;;4.78;1.70;;;;;;;18.98;43.26;101398.66;5024545;28;20725;-68
2023/05/01 05:52:14;;;;;;;4.22;1.65;;;;;;;18.99;43.04;101398.56;5024444;28;20473;-68
2023/05/01 05:54:39;;;;;;;3.93;1.50;;;;;;;19.02;43.19;101397.47;5024240;28;20048;-70
2023/05/01 05:57:04;;;;;;;3.42;1.70;;;;;;;19.02;43.12;101400.09;5024328;28;20293;-67
2023/05/01 05:59:30;;;;;;;3.80;1.60;;;;;;;19.02;43.03;101394.81;5024290;28;20120;-69
2023/05/01 06:01:55;;;;;;;3.60;1.52;;;;;;;19.05;43.01;101401.69;5024487;28;20026;-69
2023/05/01 06:04:20;;;;;;;4.35;1.80;;;;;;;19.06;43.11;101392.78;5024124;28;20053;-68
2023/05/01 06:06:46;;;;;;;2.92;1.40;;;;;;;19.07;43.18;101394.47;5024056;28;20033;-69
2023/05/01 06:09:11;;;;;;;4.32;1.90;;;;;;;19.07;43.17;101387.38;5024094;28;20033;-70
2023/05/01 06:11:37;;;;;;;3.22;1.48;;;;;;;19.08;43.22;101391.72;5024215;28;20037;-69
2023/05/01 06:14:02;;;;;;;4.75;2.20;;;;;;;19.09;43.13;101393.41;5023898;28;20091;-69
2023/05/01 06:16:28;;;;;;;3.97;1.80;;;;;;;19.10;43.16;101394.22;5024390;28;20026;-69
2023/05/01 06:18:53;;;;;;;4.53;1.88;;;;;;;19.12;43.01;101397.59;5022551;28;20057;-69
2023/05/01 06:21:18;;;;;;;3.50;1.70;;;;;;;19.11;43.04;101394.13;5023938;28;20045;-69
2023/05/01 06:23:43;;;;;;;4.63;1.70;;;;;;;19.11;43.01;101388.81;5023847;28;20775;-70
2023/05/01 06:26:09;;;;;;;3.95;1.80;;;;;;;19.10;43.21;101386.31;5024036;28;20065;-70
2023/05/01 06:28:34;;;;;;;4.65;2.00;;;;;;;19.11;43.15;101385.34;5023300;28;20036;-71
2023/05/01 06:30:59;;;;;;;6.83;2.00;;;;;;;19.13;43.25;101383.44;5023569;28;20073;-68
2023/05/01 06:33:25;;;;;;;3.67;1.65;;;;;;;19.12;43.48;101385.25;5023672;28;20837;-71
2023/05/01 06:35:50;;;;;;;4.35;1.77;;;;;;;19.13;43.48;101388.72;5023635;28;20030;-71
2023/05/01 06:38:15;;;;;;;3.00;1.58;;;;;;;19.14;43.40;101387.75;5022399;28;20045;-71
2023/05/01 06:40:41;;;;;;;4.22;1.85;;;;;;;19.13;43.58;101381.63;5023638;28;20041;-70
2023/05/01 06:43:06;;;;;;;5.05;1.80;;;;;;;19.14;43.71;101379.84;5023429;28;20043;-70
2023/05/01 06:45:32;;;;;;;4.88;2.10;;;;;;;19.14;43.61;101385.13;5023492;28;20111;-70
2023/05/01 06:47:57;;;;;;;3.72;1.67;;;;;;;19.15;43.64;101382.38;5023622;28;20025;-68
2023/05/01 06:50:23;;;;;;;5.22;1.90;;;;;;;19.15;43.77;101382.38;5021311;28;20041;-69
2023/05/01 06:52:48;;;;;;;5.78;1.95;;;;;;;19.16;43.58;101384.03;5023387;28;20513;-69
2023/05/01 06:55:13;;;;;;;3.85;1.70;;;;;;;19.17;43.87;101382.25;5023134;28;20666;-70
2023/05/01 06:57:39;;;;;;;5.30;1.88;;;;;;;19.15;43.90;101377.09;5022031;28;20032;-69
2023/05/01 07:00:06;;;;;;;4.25;2.05;;;;;;;19.14;43.85;101383.31;5022011;28;20026;-69
2023/05/01 07:02:31;;;;;;;5.38;2.05;;;;;;;19.12;43.98;101377.31;5023011;28;20041;-69
2023/05/01 07:04:57;;;;;;;4.23;1.80;;;;;;;19.17;44.02;101383.06;5023020;28;20037;-69
2023/05/01 07:07:22;;;;;;;5.10;1.92;;;;;;;19.17;43.97;101380.44;5023178;28;20428;-68
2023/05/01 07:09:47;;;;;;;4.60;2.17;;;;;;;19.17;43.89;101379.59;5022999;28;20179;-69
2023/05/01 07:12:13;;;;;;;3.88;1.80;;;;;;;19.17;44.15;101384.88;5022713;28;20477;-70
2023/05/01 07:14:38;;;;;;;4.22;1.92;;;;;;;19.15;44.31;101378.84;5023000;28;20033;-71
2023/05/01 07:17:04;;;;;;;6.25;1.80;;;;;;;19.19;44.47;101381.16;5023046;28;20037;-70
2023/05/01 07:19:29;;;;;;;3.42;1.73;;;;;;;19.19;44.39;101380.31;5022614;28;20849;-69
2023/05/01 07:21:55;;;;;;;8.85;2.13;;;;;;;19.19;44.35;101378.50;5021405;28;20041;-69
2023/05/01 07:24:20;;;;;;;4.32;1.98;;;;;;;19.20;44.61;101380.19;5022505;28;20183;-69
2023/05/01 07:26:45;;;;;;;5.22;2.22;;;;;;;19.23;44.81;101381.75;5022609;28;20029;-68
2023/05/01 07:29:12;;;;;;;3.88;1.83;;;;;;;19.21;44.97;101375.75;5022730;28;20033;-69
2023/05/01 07:31:38;;;;;;;4.38;1.70;;;;;;;19.20;44.97;101380.19;5021407;28;20389;-69
2023/05/01 07:34:03;;;;;;;4.95;2.00;;;;;;;19.24;45.15;101385.25;5022513;28;20033;-71
2023/05/01 07:36:28;;;;;;;5.05;2.08;;;;;;;19.25;45.06;101387.78;5022602;28;20042;-69
2023/05/01 07:38:54;;;;;;;7.43;2.10;;;;;;;19.21;45.28;101375.75;5022407;28;20466;-71
2023/05/01 07:41:21;;;;;;;5.53;1.80;;;;;;;19.27;45.17;101388.50;5021588;28;20044;-70
2023/05/01 07:43:46;;;;;;;4.35;1.98;;;;;;;19.24;45.34;101380.78;5022201;28;20112;-70
2023/05/01 07:46:12;;;;;;;4.72;2.08;;;;;;;19.29;45.25;101386.56;5022339;28;20236;-70
2023/05/01 07:48:37;;;;;;;5.05;1.95;;;;;;;19.29;45.32;101385.72;5020971;28;20037;-70
2023/05/01 07:51:03;;;;;;;3.50;1.80;;;;;;;19.32;45.30;101390.78;5022377;28;20474;-70
2023/05/01 07:53:28;;;;;;;6.15;1.88;;;;;;;19.34;45.29;101387.06;5022128;28;20056;-74
2023/05/01 07:55:53;;;;;;;4.30;2.30;;;;;;;19.35;45.36;101393.19;5018392;28;20029;-71
2023/05/01 07:58:19;;;;;;;6.05;2.40;;;;;;;19.40;45.13;101380.44;5020736;28;20448;-69
2023/05/01 08:00:44;;;;;;;4.78;1.90;;;;;;;19.48;45.04;101385.13;5022177;28;20265;-70
2023/05/01 08:03:11;;;;;;;5.70;1.98;;;;;;;19.52;45.22;101384.78;5021528;28;20872;-69
2023/05/01 08:05:39;;;;;;;4.57;2.10;;;;;;;19.53;44.90;101381.16;5021579;28;20026;-70
2023/05/01 08:08:05;;;;;;;3.63;1.80;;;;;;;19.55;44.86;101379.25;5021126;28;20040;-71
2023/05/01 08:10:30;;;;;;;5.30;1.90;;;;;;;19.51;44.93;101376.97;5021029;28;20029;-71
2023/05/01 08:12:55;;;;;;;5.88;1.90;;;;;;;19.48;44.93;101371.91;5020843;28;20037;-73
2023/05/01 08:15:21;;;;;;;4.45;1.90;;;;;;;19.47;44.92;101375.50;5021302;28;20026;-72
2023/05/01 08:17:46;;;;;;;8.82;1.90;;;;;;;19.48;45.21;101378.03;5021169;28;20087;-71
2023/05/01 08:20:12;;;;;;;4.93;1.90;;;;;;;19.48;45.19;101374.56;5021264;28;20033;-71
2023/05/01 08:22:37;;;;;;;4.15;1.92;;;;;;;19.48;45.13;101372.75;5020737;28;20534;-71
2023/05/01 08:25:03;;;;;;;4.03;1.90;;;;;;;19.57;45.01;101369.38;5020799;28;20029;-70
2023/05/01 08:27:29;;;;;;;5.45;2.13;;;;;;;19.64;45.16;101377.66;5020599;28;20286;-68
2023/05/01 08:29:55;;;;;;;3.50;1.77;;;;;;;19.65;44.98;101371.41;5020034;28;20045;-70
2023/05/01 08:32:20;;;;;;;4.47;1.77;;;;;;;19.54;45.04;101366.97;5020756;28;20037;-72
2023/05/01 08:34:46;;;;;;;4.03;1.90;;;;;;;19.54;45.21;101374.06;5020953;28;20282;-72
2023/05/01 08:37:11;;;;;;;5.05;1.92;;;;;;;19.54;45.40;101363.50;5019685;28;20285;-71
2023/05/01 08:39:36;;;;;;;4.60;1.85;;;;;;;19.57;45.19;101374.66;5021061;28;20041;-71
2023/05/01 08:42:02;;;;;;;5.10;2.10;;;;;;;19.55;45.37;101371.31;5020736;28;20335;-72
2023/05/01 08:44:29;;;;;;;5.05;1.90;;;;;;;19.53;45.35;101370.56;5020857;28;20103;-70
2023/05/01 08:47:09;;;;;;;3.63;1.80;;;;;;;19.58;45.37;101372.84;5019896;28;20103;-71
2023/05/01 08:49:36;;;;;;;3.67;1.90;;;;;;;19.69;45.00;101372.88;5020564;28;20025;-68
2023/05/01 08:52:04;;;;;;;3.85;1.80;;;;;;;19.73;45.14;101376.09;5020302;28;20454;-70
2023/05/01 08:54:31;;;;;;;4.35;1.85;;;;;;;19.74;45.00;101377.75;5020391;28;20033;-68
2023/05/01 08:57:04;;;;;;;4.20;2.00;;;;;;;19.71;45.09;101372.72;5020369;28;20378;-71
2023/05/01 08:59:33;;;;;;;6.82;2.00;;;;;;;19.63;45.19;101378.66;5021047;28;20026;-70
2023/05/01 09:02:03;;;;;;;5.13;2.15;;;;;;;19.60;45.63;101385.97;5019594;28;20183;-70
2023/05/01 09:04:31;;;;;;;5.28;2.00;;;;;;;19.60;45.59;101391.25;5019712;28;20471;-72
2023/05/01 09:07:00;;;;;;;7.15;1.70;;;;;;;19.68;45.40;101380.94;5020587;28;20129;-71
2023/05/01 09:09:27;;;;;;;3.97;1.50;;;;;;;19.69;45.35;101380.81;5020599;28;20048;-71
2023/05/01 09:12:11;;;;;;;5.93;1.90;;;;;;;19.80;45.12;101385.25;5019812;28;20025;-70
2023/05/01 09:14:37;;;;;;;4.07;1.67;;;;;;;19.88;45.10;101382.81;5020622;28;20038;-69
2023/05/01 09:17:02;;;;;;;3.25;1.60;;;;;;;19.89;44.84;101378.41;5020559;28;20099;-71
2023/05/01 09:19:27;;;;;;;4.20;1.80;;;;;;;19.88;44.91;101379.34;5021147;28;20033;-70
2023/05/01 09:21:54;;;;;;;4.45;1.60;;;;;;;19.86;44.76;101383.94;5020579;28;20029;-70
2023/05/01 09:24:23;;;;;;;3.85;1.77;;;;;;;19.80;45.00;101374.66;5020633;28;20638;-70
2023/05/01 09:26:48;;;;;;;5.32;1.90;;;;;;;19.80;44.86;101381.78;5021457;28;20049;-72
2023/05/01 09:29:40;;;;;;;4.65;1.70;;;;;;;19.77;45.22;101382.00;5020730;28;20037;-72
2023/05/01 09:32:12;;;;;;;4.45;1.77;;;;;;;19.73;45.11;101379.59;5020392;28;20095;-71
2023/05/01 09:34:38;;;;;;;3.92;1.80;;;;;;;19.73;45.16;101389.31;5020836;28;20072;-71
2023/05/01 09:37:03;;;;;;;5.00;1.90;;;;;;;19.69;45.39;101380.81;5020883;28;20056;-71
2023/05/01 09:39:28;;;;;;;4.70;2.00;;;;;;;19.69;45.27;101382.59;5021061;28;20406;-72
2023/05/01 09:41:54;;;;;;;5.43;1.83;;;;;;;19.68;45.63;101389.69;5020707;28;20033;-71
2023/05/01 09:44:20;;;;;;;3.65;1.75;;;;;;;19.67;45.18;101382.72;5020564;28;20029;-71
2023/05/01 09:46:46;;;;;;;3.58;1.58;;;;;;;19.67;45.22;101385.34;5020068;28;20405;-70
2023/05/01 09:49:11;;;;;;;4.75;1.80;;;;;;;19.63;45.72;101380.44;5019143;28;20091;-70
2023/05/01 09:51:37;;;;;;;4.70;1.70;;;;;;;19.64;45.63;101382.94;5020928;28;20040;-71
2023/05/01 09:54:03;;;;;;;3.72;1.70;;;;;;;19.62;45.65;101379.59;5020593;28;20037;-70
2023/05/01 09:56:31;;;;;;;6.65;1.70;;;;;;;19.64;45.71;101390.06;5020925;28;20485;-71
2023/05/01 09:59:13;;;;;;;3.65;1.63;;;;;;;19.62;45.74;101386.69;5020563;28;20033;-70
2023/05/01 10:01:41;;;;;;;3.42;1.63;;;;;;;19.64;45.78;101393.53;5020607;28;20430;-70
2023/05/01 10:04:08;;;;;;;4.55;1.70;;;;;;;19.64;45.70;101390.88;5021524;28;20108;-71
2023/05/01 10:06:34;;;;;;;3.45;1.65;;;;;;;19.64;45.97;101390.06;5024570;28;20025;-71
2023/05/01 10:08:59;;;;;;;3.90;1.90;;;;;;;19.63;45.94;101391.00;5024431;28;20046;-70
2023/05/01 10:11:25;;;;;;;4.13;1.95;;;;;;;19.63;46.06;101386.56;5024230;28;20398;-71
2023/05/01 10:14:09;;;;;;;4.88;1.85;;;;;;;19.58;45.91;101384.28;5024169;28;20040;-72
2023/05/01 10:16:37;;;;;;;3.78;1.50;;;;;;;19.62;46.12;101386.69;5024489;28;20033;-70
2023/05/01 10:19:03;;;;;;;3.17;1.73;;;;;;;19.57;46.03;101385.25;5023757;28;20045;-72
2023/05/01 10:21:30;;;;;;;4.25;2.08;;;;;;;19.62;46.02;101398.09;5022943;28;20413;-71
2023/05/01 10:23:56;;;;;;;5.47;1.73;;;;;;;19.62;46.22;101390.16;5023999;28;20048;-72
2023/05/01 10:26:22;;;;;;;5.25;1.92;;;;;;;19.62;46.37;101398.09;5022407;28;20037;-71
2023/05/01 10:28:48;;;;;;;5.90;1.55;;;;;;;19.61;46.50;101399.06;5023858;28;20079;-70
2023/05/01 10:31:15;;;;;;;4.57;2.13;;;;;;;19.63;46.19;101391.00;5023822;28;20057;-70
2023/05/01 10:33:42;;;;;;;4.78;1.90;;;;;;;19.63;46.01;101396.28;5023959;28;20032;-71
2023/05/01 10:36:22;;;;;;;3.65;1.60;;;;;;;19.58;46.02;101389.59;5023911;28;20080;-71
2023/05/01 10:38:47;;;;;;;4.15;1.80;;;;;;;19.61;46.14;101398.22;5023226;28;20073;-69
2023/05/01 10:41:15;;;;;;;4.10;1.83;;;;;;;19.61;46.15;101391.13;5023605;28;20064;-70
2023/05/01 10:43:41;;;;;;;5.63;1.90;;;;;;;19.60;46.34;101386.81;5023200;28;20564;-71
2023/05/01 10:46:06;;;;;;;4.10;1.75;;;;;;;19.61;46.34;101396.41;5023714;28;20056;-71
2023/05/01 10:48:43;;;;;;;4.57;1.70;;;;;;;19.62;46.40;101406.03;5023464;28;20480;-71
2023/05/01 10:51:22;;;;;;;4.93;1.90;;;;;;;19.61;46.14;101406.16;5023575;28;20294;-71
2023/05/01 10:54:12;;;;;;;5.20;2.25;;;;;;;19.61;46.30;101412.28;5023130;28;20037;-70
2023/05/01 10:56:38;;;;;;;4.13;2.00;;;;;;;19.62;46.19;101419.25;5023575;28;20059;-71
2023/05/01 10:59:04;;;;;;;4.27;1.80;;;;;;;19.60;45.93;101413.25;5023145;28;20453;-71
2023/05/01 11:01:30;;;;;;;5.32;1.70;;;;;;;19.60;46.35;101405.31;5022147;28;20349;-70
2023/05/01 11:03:56;;;;;;;3.45;1.92;;;;;;;19.57;46.37;101406.41;5023185;28;20080;-70
2023/05/01 11:06:22;;;;;;;6.05;1.80;;;;;;;19.59;46.18;101403.63;5022779;28;20037;-71
2023/05/01 11:08:48;;;;;;;4.20;1.98;;;;;;;19.58;46.01;101394.88;5023350;28;20030;-71
2023/05/01 11:11:22;;;;;;;4.78;2.00;;;;;;;19.61;46.18;101403.50;5023134;28;20044;-70
2023/05/01 11:14:04;;;;;;;5.00;2.00;;;;;;;19.62;46.13;101402.56;5023163;28;20033;-70
2023/05/01 11:16:39;;;;;;;7.05;2.13;;;;;;;19.61;45.95;101407.00;5021216;28;20033;-72
2023/05/01 11:19:06;;;;;;;4.10;1.70;;;;;;;19.61;45.92;101412.28;5022876;28;20087;-68
2023/05/01 11:21:33;;;;;;;5.68;2.55;;;;;;;19.58;45.88;101402.81;5023052;28;20040;-68
2023/05/01 11:24:02;;;;;;;4.43;1.80;;;;;;;19.59;45.96;101411.56;5022995;28;20088;-68